Time;durP1;ratioP1;P1;durP2;ratioP2;P2;SDS_P1;SDS_P2;PMS_P1;PMS_P2;Temp;Humidity;BMP_temperature;BMP_pressure;BME280_temperature;BME280_humidity;BME280_pressure;Samples;Min_cycle;Max_cycle;Signal;HPM_P1;HPM_P2
2021/08/03 00:01:51;;;;;;;3.85;1.58;;;;;;;;;;4941996;29;20047;-90
2021/08/03 00:04:38;;;;;;;10.75;2.05;;;;;;;;;;4933147;29;20388;-91
2021/08/03 00:07:17;;;;;;;3.75;1.85;;;;;;;;;;4939342;29;20147;-90
2021/08/03 00:09:45;;;;;;;5.78;2.10;;;;;;;;;;4923617;29;20561;-90
2021/08/03 00:12:16;;;;;;;5.43;1.80;;;;;;;;;;4924288;29;20051;-90
2021/08/03 00:14:47;;;;;;;5.68;2.00;;;;;;;;;;4942716;29;20091;-90
2021/08/03 00:17:20;;;;;;;4.85;2.00;;;;;;;;;;4946160;29;20114;-90
2021/08/03 00:19:47;;;;;;;7.70;1.75;;;;;;;;;;4971192;28;20105;-89
2021/08/03 00:22:14;;;;;;;7.60;2.00;;;;;;;;;;4940625;29;20051;-87
2021/08/03 00:24:43;;;;;;;5.45;2.05;;;;;;;;;;4928952;29;20051;-87
2021/08/03 00:27:10;;;;;;;5.75;2.30;;;;;;;;;;4963617;28;20050;-86
2021/08/03 00:29:40;;;;;;;10.35;2.30;;;;;;;;;;4939943;29;20761;-87
2021/08/03 00:32:07;;;;;;;7.05;2.28;;;;;;;;;;4948405;29;20512;-87
2021/08/03 00:34:38;;;;;;;4.95;1.70;;;;;;;;;;4921157;28;20659;-87
2021/08/03 00:37:09;;;;;;;11.77;2.45;;;;;;;;;;4919906;29;20051;-87
2021/08/03 00:39:37;;;;;;;10.07;2.05;;;;;;;;;;4937406;29;20056;-86
2021/08/03 00:42:10;;;;;;;14.85;2.42;;;;;;;;;;4920317;29;20134;-86
2021/08/03 00:44:38;;;;;;;5.90;1.90;;;;;;;;;;4925161;28;20081;-87
2021/08/03 00:47:05;;;;;;;4.07;2.00;;;;;;;;;;4938980;29;20051;-86
2021/08/03 00:49:32;;;;;;;5.63;2.10;;;;;;;;;;4955580;29;20082;-87
2021/08/03 00:51:59;;;;;;;7.47;2.25;;;;;;;;;;4936080;29;20488;-86
2021/08/03 00:54:27;;;;;;;3.85;2.10;;;;;;;;;;4945155;28;20540;-87
2021/08/03 00:56:55;;;;;;;6.63;2.00;;;;;;;;;;4958014;28;20047;-87
2021/08/03 00:59:22;;;;;;;6.05;2.20;;;;;;;;;;4941432;28;20122;-86
2021/08/03 01:01:49;;;;;;;6.95;2.08;;;;;;;;;;4937128;29;20074;-87
2021/08/03 01:04:21;;;;;;;5.57;2.40;;;;;;;;;;4930767;29;20067;-86
2021/08/03 01:06:54;;;;;;;6.93;1.90;;;;;;;;;;4933198;29;20082;-86
2021/08/03 01:12:31;;;;;;;8.32;3.47;;;;;;;;;;4938204;29;20110;-87
2021/08/03 01:15:07;;;;;;;6.60;2.75;;;;;;;;;;4948825;28;20499;-91
2021/08/03 01:17:41;;;;;;;5.43;2.10;;;;;;;;;;4953369;29;20082;-90
2021/08/03 01:20:09;;;;;;;5.10;2.08;;;;;;;;;;4937020;29;20056;-91
2021/08/03 01:22:46;;;;;;;5.47;2.00;;;;;;;;;;4937619;29;20559;-90
2021/08/03 01:25:21;;;;;;;7.35;2.65;;;;;;;;;;4933946;28;20051;-90
2021/08/03 01:28:07;;;;;;;6.20;2.33;;;;;;;;;;4936673;29;20143;-90
2021/08/03 01:30:46;;;;;;;4.22;2.00;;;;;;;;;;4938439;29;20079;-91
2021/08/03 01:33:24;;;;;;;8.20;1.73;;;;;;;;;;4940460;28;20058;-91
2021/08/03 01:35:53;;;;;;;4.72;2.10;;;;;;;;;;4953975;29;20481;-90
2021/08/03 01:38:21;;;;;;;8.15;2.22;;;;;;;;;;4936834;29;20051;-90
2021/08/03 01:40:49;;;;;;;7.13;2.55;;;;;;;;;;4953851;28;20054;-90
2021/08/03 01:43:17;;;;;;;10.48;2.30;;;;;;;;;;4957653;28;20082;-91
2021/08/03 01:45:45;;;;;;;6.25;2.22;;;;;;;;;;4952561;28;20046;-91
2021/08/03 01:48:16;;;;;;;6.20;2.33;;;;;;;;;;4959215;28;20130;-91
2021/08/03 01:50:45;;;;;;;5.07;2.75;;;;;;;;;;4958447;28;20085;-91
2021/08/03 01:53:12;;;;;;;6.82;2.50;;;;;;;;;;4957664;28;20059;-90
2021/08/03 01:55:40;;;;;;;7.45;3.55;;;;;;;;;;4945484;28;20054;-91
2021/08/03 01:58:11;;;;;;;26.80;4.63;;;;;;;;;;4939733;29;20055;-91
2021/08/03 02:00:39;;;;;;;6.78;2.33;;;;;;;;;;4940250;29;20051;-88
2021/08/03 02:03:13;;;;;;;4.82;2.58;;;;;;;;;;4936294;29;20056;-91
2021/08/03 02:05:43;;;;;;;8.77;2.47;;;;;;;;;;4917401;29;20103;-91
2021/08/03 02:08:10;;;;;;;7.93;2.70;;;;;;;;;;4942011;28;20038;-91
2021/08/03 02:10:42;;;;;;;5.47;2.55;;;;;;;;;;4955660;28;20051;-91
2021/08/03 02:13:10;;;;;;;9.15;2.95;;;;;;;;;;4950385;29;20052;-91
2021/08/03 02:15:37;;;;;;;10.45;2.85;;;;;;;;;;4915755;29;20051;-91
2021/08/03 02:18:05;;;;;;;5.72;2.35;;;;;;;;;;4920358;29;20052;-90
2021/08/03 02:20:34;;;;;;;7.93;2.75;;;;;;;;;;4920047;29;20048;-90
2021/08/03 02:23:01;;;;;;;8.75;2.70;;;;;;;;;;4937120;29;20079;-90
2021/08/03 02:25:47;;;;;;;12.02;3.83;;;;;;;;;;4914435;29;20051;-91
2021/08/03 02:28:14;;;;;;;;;;;;;;;;;;4944860;28;20157;-91
2021/08/03 02:30:47;;;;;;;5.35;2.40;;;;;;;;;;4974316;28;19921;-91
2021/08/03 02:33:33;;;;;;;7.03;2.97;;;;;;;;;;4951360;29;20468;-90
2021/08/03 02:36:03;;;;;;;6.95;2.75;;;;;;;;;;4935727;29;20472;-91
2021/08/03 02:38:40;;;;;;;5.68;2.97;;;;;;;;;;4939007;29;20105;-90
2021/08/03 02:41:09;;;;;;;11.20;2.83;;;;;;;;;;4965693;28;20411;-91
2021/08/03 02:44:11;;;;;;;10.18;2.80;;;;;;;;;;4956377;28;20050;-91
2021/08/03 02:46:40;;;;;;;7.20;2.63;;;;;;;;;;4954316;28;20046;-91
2021/08/03 02:49:47;;;;;;;14.73;2.97;;;;;;;;;;4974172;28;20106;-91
2021/08/03 02:52:15;;;;;;;7.90;2.47;;;;;;;;;;4949339;28;20070;-90
2021/08/03 02:54:44;;;;;;;7.63;2.90;;;;;;;;;;4929532;28;20098;-91
2021/08/03 02:57:29;;;;;;;10.38;3.13;;;;;;;;;;4955099;28;20051;-91
2021/08/03 03:00:08;;;;;;;7.90;3.10;;;;;;;;;;4955578;29;20048;-90
2021/08/03 03:02:37;;;;;;;6.63;3.10;;;;;;;;;;4954894;29;20440;-90
2021/08/03 03:05:08;;;;;;;10.02;2.90;;;;;;;;;;4947980;28;20058;-90
2021/08/03 03:08:00;;;;;;;11.05;3.28;;;;;;;;;;4947050;29;20496;-87
2021/08/03 03:10:28;;;;;;;10.43;2.45;;;;;;;;;;4933133;29;20062;-86
2021/08/03 03:13:25;;;;;;;8.40;2.78;;;;;;;;;;4936807;29;20047;-87
2021/08/03 03:15:52;;;;;;;7.72;2.60;;;;;;;;;;4914688;29;20055;-88
2021/08/03 03:18:22;;;;;;;4.05;2.50;;;;;;;;;;4961698;28;20046;-86
2021/08/03 03:20:50;;;;;;;10.98;2.72;;;;;;;;;;4941341;29;20113;-87
2021/08/03 03:23:23;;;;;;;9.80;2.83;;;;;;;;;;4935836;29;20457;-87
2021/08/03 03:25:52;;;;;;;8.63;2.45;;;;;;;;;;4933979;28;20051;-86
2021/08/03 03:28:23;;;;;;;5.45;2.53;;;;;;;;;;4951345;28;20055;-87
2021/08/03 03:30:55;;;;;;;5.57;2.70;;;;;;;;;;4952674;28;20047;-86
2021/08/03 03:33:25;;;;;;;11.05;2.85;;;;;;;;;;4936168;29;20054;-87
2021/08/03 03:36:06;;;;;;;4.55;2.63;;;;;;;;;;4946052;28;20043;-87
2021/08/03 03:38:37;;;;;;;8.00;2.58;;;;;;;;;;4944277;29;20094;-87
2021/08/03 03:41:07;;;;;;;7.82;2.67;;;;;;;;;;4940112;29;20047;-87
2021/08/03 03:43:38;;;;;;;5.75;2.22;;;;;;;;;;4936854;28;20070;-91
2021/08/03 03:46:22;;;;;;;15.95;4.35;;;;;;;;;;4952199;28;20059;-88
2021/08/03 03:49:03;;;;;;;7.78;2.35;;;;;;;;;;4940289;29;20708;-89
2021/08/03 03:51:30;;;;;;;10.05;2.83;;;;;;;;;;4961398;28;20044;-91
2021/08/03 03:54:01;;;;;;;13.80;2.92;;;;;;;;;;4945819;29;20052;-89
2021/08/03 03:56:31;;;;;;;12.88;3.00;;;;;;;;;;4942671;28;20103;-90
2021/08/03 03:59:06;;;;;;;6.50;2.60;;;;;;;;;;4950444;28;20049;-90
2021/08/03 04:01:33;;;;;;;4.95;2.72;;;;;;;;;;4954358;28;20103;-89
2021/08/03 04:07:12;;;;;;;5.90;2.97;;;;;;;;;;4954153;28;20062;-87
2021/08/03 04:09:41;;;;;;;7.43;2.47;;;;;;;;;;4926027;29;20304;-87
2021/08/03 04:12:08;;;;;;;9.07;3.10;;;;;;;;;;4948748;28;20163;-87
2021/08/03 04:14:37;;;;;;;4.50;2.58;;;;;;;;;;4922579;28;20592;-86
2021/08/03 04:17:06;;;;;;;11.02;3.20;;;;;;;;;;4933123;29;20465;-88
2021/08/03 04:19:34;;;;;;;7.13;2.45;;;;;;;;;;4933820;29;20134;-87
2021/08/03 04:22:01;;;;;;;9.13;2.55;;;;;;;;;;4934019;29;20087;-87
2021/08/03 04:24:29;;;;;;;6.70;2.53;;;;;;;;;;4925339;28;20051;-87
2021/08/03 04:26:57;;;;;;;9.60;2.50;;;;;;;;;;4931033;29;20063;-87
2021/08/03 04:29:25;;;;;;;5.60;2.80;;;;;;;;;;4936559;29;20408;-88
2021/08/03 04:31:53;;;;;;;4.55;2.78;;;;;;;;;;4937420;29;20130;-88
2021/08/03 04:34:20;;;;;;;4.13;2.50;;;;;;;;;;4927208;28;20051;-88
2021/08/03 04:36:48;;;;;;;11.73;2.97;;;;;;;;;;4931302;29;20106;-88
2021/08/03 04:39:16;;;;;;;9.75;2.60;;;;;;;;;;4934201;29;20080;-88
2021/08/03 04:41:43;;;;;;;5.95;2.15;;;;;;;;;;4934205;29;20059;-88
2021/08/03 04:44:10;;;;;;;8.10;2.67;;;;;;;;;;4928558;29;20138;-88
2021/08/03 04:46:37;;;;;;;9.45;2.22;;;;;;;;;;4934589;29;20134;-87
2021/08/03 04:49:05;;;;;;;11.55;2.50;;;;;;;;;;4933784;29;20139;-87
2021/08/03 04:51:32;;;;;;;4.75;2.55;;;;;;;;;;4933278;29;20093;-86
2021/08/03 04:53:59;;;;;;;6.05;2.08;;;;;;;;;;4924435;29;20059;-87
2021/08/03 04:56:27;;;;;;;3.53;2.35;;;;;;;;;;4946803;29;20075;-86
2021/08/03 04:58:54;;;;;;;4.65;2.60;;;;;;;;;;4931905;29;20163;-87
2021/08/03 05:01:21;;;;;;;4.68;2.30;;;;;;;;;;4932970;29;20081;-88
2021/08/03 05:03:48;;;;;;;8.05;2.35;;;;;;;;;;4946318;29;20057;-86
2021/08/03 05:06:15;;;;;;;8.00;2.75;;;;;;;;;;4943783;29;20051;-84
2021/08/03 05:08:43;;;;;;;8.45;2.30;;;;;;;;;;4933743;29;20055;-86
2021/08/03 05:11:10;;;;;;;8.95;2.65;;;;;;;;;;4933286;29;20090;-86
2021/08/03 05:13:37;;;;;;;5.25;2.10;;;;;;;;;;4926625;28;20142;-87
2021/08/03 05:16:09;;;;;;;3.50;2.03;;;;;;;;;;4940779;29;20565;-86
2021/08/03 05:18:37;;;;;;;7.70;2.80;;;;;;;;;;4933644;29;20048;-88
2021/08/03 05:21:04;;;;;;;10.43;3.10;;;;;;;;;;4931631;29;20075;-86
2021/08/03 05:23:31;;;;;;;5.47;2.47;;;;;;;;;;4942464;28;20142;-86
2021/08/03 05:25:58;;;;;;;9.85;2.58;;;;;;;;;;4923389;29;20109;-86
2021/08/03 05:28:26;;;;;;;7.95;2.65;;;;;;;;;;4932154;29;20364;-86
2021/08/03 05:30:53;;;;;;;4.10;2.65;;;;;;;;;;4931862;29;20062;-85
2021/08/03 05:33:21;;;;;;;5.03;2.30;;;;;;;;;;4926960;29;20697;-84
2021/08/03 05:35:49;;;;;;;3.38;2.10;;;;;;;;;;4924240;29;20314;-87
2021/08/03 05:38:16;;;;;;;6.47;2.45;;;;;;;;;;4932053;29;20055;-86
2021/08/03 05:40:43;;;;;;;8.82;2.58;;;;;;;;;;4949380;29;20472;-86
2021/08/03 05:43:10;;;;;;;7.10;2.60;;;;;;;;;;4932296;29;20130;-86
2021/08/03 05:45:37;;;;;;;7.97;2.95;;;;;;;;;;4920571;29;20066;-86
2021/08/03 05:48:05;;;;;;;5.72;2.10;;;;;;;;;;4932922;29;20563;-85
2021/08/03 05:50:32;;;;;;;11.25;2.63;;;;;;;;;;4932267;29;20138;-86
2021/08/03 05:52:59;;;;;;;11.55;2.55;;;;;;;;;;4932134;29;20059;-86
2021/08/03 05:55:27;;;;;;;11.07;2.30;;;;;;;;;;4932296;28;20070;-86
2021/08/03 05:57:54;;;;;;;6.57;2.40;;;;;;;;;;4967699;28;20138;-85
2021/08/03 06:00:21;;;;;;;7.40;2.10;;;;;;;;;;4970172;28;20054;-86
2021/08/03 06:02:49;;;;;;;8.30;2.45;;;;;;;;;;4948605;28;20375;-86
2021/08/03 06:05:18;;;;;;;7.40;2.38;;;;;;;;;;4943032;28;20054;-86
2021/08/03 06:07:48;;;;;;;7.28;2.15;;;;;;;;;;4950640;28;20086;-86
2021/08/03 06:10:16;;;;;;;5.32;2.05;;;;;;;;;;4951180;28;20644;-86
2021/08/03 06:12:49;;;;;;;6.25;2.30;;;;;;;;;;4950497;28;20492;-85
2021/08/03 06:15:17;;;;;;;18.02;2.63;;;;;;;;;;4935672;28;20679;-85
2021/08/03 06:17:47;;;;;;;9.43;2.03;;;;;;;;;;4950871;28;20715;-85
2021/08/03 06:20:14;;;;;;;6.95;2.50;;;;;;;;;;4950009;28;20109;-86
2021/08/03 06:22:42;;;;;;;9.75;1.63;;;;;;;;;;4950634;28;20146;-86
2021/08/03 06:25:13;;;;;;;31.88;5.00;;;;;;;;;;4937020;28;20054;-86
2021/08/03 06:27:41;;;;;;;6.20;2.20;;;;;;;;;;4967416;28;20137;-86
2021/08/03 06:30:09;;;;;;;3.75;1.70;;;;;;;;;;4950616;28;20149;-85
2021/08/03 06:32:36;;;;;;;7.38;2.28;;;;;;;;;;4949945;28;20579;-85
2021/08/03 06:35:04;;;;;;;5.82;1.63;;;;;;;;;;4937671;28;20054;-83
2021/08/03 06:37:31;;;;;;;8.85;2.10;;;;;;;;;;4950851;28;20516;-85
2021/08/03 06:39:58;;;;;;;9.38;1.80;;;;;;;;;;4950654;28;20467;-85
2021/08/03 06:42:31;;;;;;;2.47;1.45;;;;;;;;;;4950303;28;20157;-83
2021/08/03 06:45:08;;;;;;;8.45;1.60;;;;;;;;;;4955419;28;20146;-83
2021/08/03 06:47:45;;;;;;;5.38;1.50;;;;;;;;;;4949477;28;20154;-83
2021/08/03 06:50:14;;;;;;;4.05;1.70;;;;;;;;;;4969007;28;20116;-84
2021/08/03 06:52:41;;;;;;;8.20;2.40;;;;;;;;;;4954643;28;20078;-84
2021/08/03 06:55:09;;;;;;;5.43;1.70;;;;;;;;;;4942369;28;20052;-84
2021/08/03 06:57:36;;;;;;;8.32;1.73;;;;;;;;;;4954592;28;20133;-85
2021/08/03 07:00:09;;;;;;;7.35;2.17;;;;;;;;;;4970888;28;20051;-83
2021/08/03 07:02:40;;;;;;;7.97;1.88;;;;;;;;;;4953620;28;20113;-82
2021/08/03 07:05:10;;;;;;;7.60;1.70;;;;;;;;;;4956472;28;20400;-84
2021/08/03 07:07:38;;;;;;;5.55;1.70;;;;;;;;;;4953312;28;20081;-85
2021/08/03 07:10:07;;;;;;;2.40;1.13;;;;;;;;;;4953882;28;20093;-84
2021/08/03 07:12:35;;;;;;;6.30;1.92;;;;;;;;;;4954110;28;20451;-84
2021/08/03 07:15:02;;;;;;;3.08;1.70;;;;;;;;;;4941026;28;20300;-84
2021/08/03 07:17:30;;;;;;;8.35;1.80;;;;;;;;;;4953838;28;20051;-83
2021/08/03 07:19:59;;;;;;;6.07;1.55;;;;;;;;;;4953182;28;20046;-85
2021/08/03 07:22:27;;;;;;;2.42;1.30;;;;;;;;;;4970896;28;20054;-85
2021/08/03 07:24:56;;;;;;;3.92;1.25;;;;;;;;;;4941851;28;20539;-85
2021/08/03 07:27:23;;;;;;;5.38;1.45;;;;;;;;;;4953629;28;20132;-85
2021/08/03 07:29:50;;;;;;;8.60;1.88;;;;;;;;;;4953034;28;20142;-85
2021/08/03 07:32:17;;;;;;;2.50;1.30;;;;;;;;;;4969585;28;20113;-84
2021/08/03 07:34:46;;;;;;;6.75;1.20;;;;;;;;;;4959466;28;20614;-84
2021/08/03 07:37:13;;;;;;;1.13;1.00;;;;;;;;;;4915221;29;20055;-86
2021/08/03 07:39:41;;;;;;;2.17;1.35;;;;;;;;;;4913620;29;20159;-85
2021/08/03 07:42:09;;;;;;;4.22;1.08;;;;;;;;;;4906861;29;20102;-85
2021/08/03 07:44:37;;;;;;;2.08;1.08;;;;;;;;;;4921436;29;20055;-84
2021/08/03 07:47:04;;;;;;;1.95;1.20;;;;;;;;;;4959764;28;20142;-84
2021/08/03 07:49:31;;;;;;;4.15;1.92;;;;;;;;;;4957678;28;20128;-84
2021/08/03 07:52:01;;;;;;;3.80;1.60;;;;;;;;;;4958610;28;20086;-85
2021/08/03 07:54:28;;;;;;;3.45;1.42;;;;;;;;;;4949162;28;20051;-85
2021/08/03 07:56:59;;;;;;;5.47;1.63;;;;;;;;;;4972462;28;20046;-86
2021/08/03 07:59:26;;;;;;;2.17;1.40;;;;;;;;;;4957951;28;20125;-85
2021/08/03 08:01:55;;;;;;;5.15;1.33;;;;;;;;;;4958156;28;20067;-85
2021/08/03 08:04:24;;;;;;;5.85;1.60;;;;;;;;;;4951558;28;20048;-85
2021/08/03 08:06:54;;;;;;;6.55;1.40;;;;;;;;;;4934316;29;20063;-86
2021/08/03 08:09:34;;;;;;;4.35;1.58;;;;;;;;;;4938650;29;20138;-85
2021/08/03 08:12:06;;;;;;;4.75;1.80;;;;;;;;;;4938865;29;20075;-85
2021/08/03 08:14:36;;;;;;;2.95;1.25;;;;;;;;;;4931005;28;20141;-85
2021/08/03 08:17:09;;;;;;;7.30;1.10;;;;;;;;;;4938241;29;20077;-85
2021/08/03 08:19:40;;;;;;;3.13;1.20;;;;;;;;;;4938866;29;20138;-86
2021/08/03 08:22:07;;;;;;;3.65;1.20;;;;;;;;;;4938187;29;20087;-85
2021/08/03 08:24:34;;;;;;;4.72;1.25;;;;;;;;;;4929012;28;20203;-85
2021/08/03 08:27:01;;;;;;;7.32;1.40;;;;;;;;;;4938414;29;20055;-85
2021/08/03 08:29:31;;;;;;;3.47;1.38;;;;;;;;;;4937904;29;20149;-85
2021/08/03 08:31:59;;;;;;;3.53;1.38;;;;;;;;;;4937945;29;20729;-85
2021/08/03 08:34:28;;;;;;;5.60;1.40;;;;;;;;;;4930563;28;20142;-84
2021/08/03 08:36:56;;;;;;;2.95;1.30;;;;;;;;;;4925512;29;20107;-85
2021/08/03 08:39:23;;;;;;;3.78;1.48;;;;;;;;;;4937568;29;20074;-86
2021/08/03 08:41:51;;;;;;;2.83;1.17;;;;;;;;;;4956258;29;20062;-86
2021/08/03 08:44:28;;;;;;;2.80;1.20;;;;;;;;;;4929432;29;20074;-85
2021/08/03 08:46:58;;;;;;;5.25;1.40;;;;;;;;;;4952086;29;20575;-86
2021/08/03 08:49:26;;;;;;;4.72;1.10;;;;;;;;;;4938566;29;20061;-86
2021/08/03 08:51:55;;;;;;;4.90;1.60;;;;;;;;;;4955437;28;20098;-86
2021/08/03 08:54:24;;;;;;;3.63;1.30;;;;;;;;;;4930591;28;20055;-86
2021/08/03 08:56:51;;;;;;;6.82;1.55;;;;;;;;;;4933497;29;20085;-84
2021/08/03 08:59:18;;;;;;;3.13;1.77;;;;;;;;;;4937864;29;20043;-89
2021/08/03 09:01:56;;;;;;;4.28;1.67;;;;;;;;;;4938380;29;20389;-91
2021/08/03 09:04:25;;;;;;;5.55;1.58;;;;;;;;;;4932545;28;20094;-90
2021/08/03 09:07:07;;;;;;;3.92;1.70;;;;;;;;;;4935051;29;20497;-89
2021/08/03 09:09:44;;;;;;;2.78;1.50;;;;;;;;;;4937586;29;20138;-89
2021/08/03 09:12:12;;;;;;;4.65;1.60;;;;;;;;;;4954661;29;20106;-89
2021/08/03 09:14:40;;;;;;;7.20;1.70;;;;;;;;;;4927337;28;20093;-89
2021/08/03 09:17:09;;;;;;;14.20;2.03;;;;;;;;;;4935974;29;20051;-88
2021/08/03 09:19:44;;;;;;;5.72;1.77;;;;;;;;;;4954482;29;20051;-88
2021/08/03 09:22:11;;;;;;;4.18;1.92;;;;;;;;;;4935232;29;20117;-88
2021/08/03 09:24:40;;;;;;;3.30;1.13;;;;;;;;;;4941211;28;20075;-89
2021/08/03 09:27:07;;;;;;;5.57;1.80;;;;;;;;;;4932878;29;20065;-88
2021/08/03 09:29:44;;;;;;;5.47;1.40;;;;;;;;;;4951638;29;20051;-89
2021/08/03 09:32:14;;;;;;;2.80;0.95;;;;;;;;;;4935031;29;20129;-89
2021/08/03 09:34:41;;;;;;;6.32;1.83;;;;;;;;;;4924395;29;20496;-88
2021/08/03 09:37:08;;;;;;;17.48;2.20;;;;;;;;;;4933632;29;20575;-89
2021/08/03 09:39:40;;;;;;;2.97;1.13;;;;;;;;;;4935017;29;20485;-88
2021/08/03 09:42:15;;;;;;;3.22;1.30;;;;;;;;;;4934523;29;20106;-88
2021/08/03 09:44:49;;;;;;;3.40;1.35;;;;;;;;;;4925012;29;20142;-89
2021/08/03 09:47:33;;;;;;;3.47;1.38;;;;;;;;;;4916257;29;20056;-88
2021/08/03 09:50:09;;;;;;;1.35;1.05;;;;;;;;;;4932238;29;20066;-88
2021/08/03 09:52:52;;;;;;;3.95;1.25;;;;;;;;;;4931255;29;20521;-88
2021/08/03 09:55:27;;;;;;;5.88;1.25;;;;;;;;;;4922073;29;20056;-89
2021/08/03 09:58:11;;;;;;;6.50;1.00;;;;;;;;;;4931668;29;20142;-88
2021/08/03 10:00:49;;;;;;;3.20;1.20;;;;;;;;;;4931762;29;20098;-89
2021/08/03 10:03:26;;;;;;;3.65;1.92;;;;;;;;;;4926481;29;20066;-88
2021/08/03 10:05:58;;;;;;;6.80;1.58;;;;;;;;;;4933755;28;20047;-89
2021/08/03 10:08:42;;;;;;;3.78;1.30;;;;;;;;;;4969801;28;20129;-88
2021/08/03 10:11:17;;;;;;;3.28;1.40;;;;;;;;;;4954643;28;20059;-89
2021/08/03 10:13:50;;;;;;;5.85;2.22;;;;;;;;;;4951939;28;20098;-88
2021/08/03 10:16:23;;;;;;;;;;;;;;;;;;4950633;28;20053;-87
2021/08/03 10:19:04;;;;;;;4.32;1.10;;;;;;;;;;4971230;28;19929;-87
2021/08/03 10:21:34;;;;;;;3.17;1.73;;;;;;;;;;4953712;28;20047;-87
2021/08/03 10:27:10;;;;;;;6.40;1.20;;;;;;;;;;5056570;23;20656;-84
2021/08/03 10:29:39;;;;;;;5.82;1.52;;;;;;;;;;4967444;28;20121;-84
2021/08/03 10:32:06;;;;;;;2.88;1.00;;;;;;;;;;4967233;28;20054;-85
2021/08/03 10:34:48;;;;;;;5.47;1.10;;;;;;;;;;4959206;28;20093;-85
2021/08/03 10:37:15;;;;;;;2.88;1.30;;;;;;;;;;4967114;28;20467;-85
2021/08/03 10:39:56;;;;;;;2.88;1.27;;;;;;;;;;4966837;28;20094;-86
2021/08/03 10:42:30;;;;;;;2.40;1.50;;;;;;;;;;4966749;28;20133;-86
2021/08/03 10:45:02;;;;;;;3.20;1.17;;;;;;;;;;4953377;28;20090;-87
2021/08/03 10:47:36;;;;;;;4.95;1.17;;;;;;;;;;4965708;28;20637;-87
2021/08/03 10:50:08;;;;;;;;;;;;;;;;;;4965371;28;20095;-87
2021/08/03 10:52:48;;;;;;;2.45;1.35;;;;;;;;;;4966720;28;20010;-87
2021/08/03 10:55:31;;;;;;;4.13;1.33;;;;;;;;;;4954327;28;20065;-86
2021/08/03 10:58:19;;;;;;;3.42;1.20;;;;;;;;;;4966530;28;20138;-86
2021/08/03 11:00:48;;;;;;;3.38;1.17;;;;;;;;;;4966151;28;20082;-86
2021/08/03 11:03:31;;;;;;;8.95;1.50;;;;;;;;;;4964810;28;20407;-85
2021/08/03 11:06:04;;;;;;;2.58;1.00;;;;;;;;;;4957531;28;20464;-85
2021/08/03 11:08:39;;;;;;;2.97;1.38;;;;;;;;;;4967990;28;20086;-85
2021/08/03 11:11:14;;;;;;;4.55;1.40;;;;;;;;;;4965824;28;20448;-86
2021/08/03 11:13:46;;;;;;;3.35;1.42;;;;;;;;;;4960558;28;20138;-86
2021/08/03 11:16:20;;;;;;;4.80;1.20;;;;;;;;;;4957537;28;20066;-87
2021/08/03 11:18:50;;;;;;;2.58;1.25;;;;;;;;;;4965985;28;20503;-87
2021/08/03 11:21:18;;;;;;;7.75;1.10;;;;;;;;;;4967338;28;20065;-87
2021/08/03 11:24:00;;;;;;;4.70;1.77;;;;;;;;;;4959481;28;20146;-86
2021/08/03 11:26:38;;;;;;;1.27;0.90;;;;;;;;;;4960512;28;20094;-86
2021/08/03 11:29:07;;;;;;;1.75;0.90;;;;;;;;;;4964686;28;20086;-87
2021/08/03 11:31:43;;;;;;;2.75;0.93;;;;;;;;;;4966667;28;20086;-87
2021/08/03 11:34:11;;;;;;;1.15;0.80;;;;;;;;;;4955928;28;20561;-87
2021/08/03 11:36:52;;;;;;;2.13;1.10;;;;;;;;;;4969058;28;20082;-87
2021/08/03 11:39:22;;;;;;;2.00;1.20;;;;;;;;;;4988480;28;20290;-86
2021/08/03 11:41:50;;;;;;;2.33;0.95;;;;;;;;;;4987612;28;20077;-86
2021/08/03 11:44:18;;;;;;;4.93;0.93;;;;;;;;;;4980556;28;20086;-86
2021/08/03 11:46:46;;;;;;;2.22;0.90;;;;;;;;;;4984393;28;20058;-86
2021/08/03 11:49:13;;;;;;;4.88;1.05;;;;;;;;;;4988493;28;20560;-86
2021/08/03 11:51:45;;;;;;;1.90;0.80;;;;;;;;;;4987971;28;20050;-87
2021/08/03 11:54:16;;;;;;;4.38;1.02;;;;;;;;;;4981707;28;20376;-86
2021/08/03 11:56:44;;;;;;;1.65;0.73;;;;;;;;;;4984121;28;20141;-86
2021/08/03 11:59:11;;;;;;;2.03;0.63;;;;;;;;;;4988846;28;20144;-87
2021/08/03 12:01:52;;;;;;;0.82;0.60;;;;;;;;;;4988846;28;20152;-86
2021/08/03 12:04:22;;;;;;;1.98;0.90;;;;;;;;;;4979471;28;20054;-86
2021/08/03 12:06:57;;;;;;;1.88;1.02;;;;;;;;;;4984668;28;20147;-86
2021/08/03 12:09:36;;;;;;;1.80;1.05;;;;;;;;;;4989045;28;20050;-86
2021/08/03 12:12:03;;;;;;;1.50;0.85;;;;;;;;;;4988612;28;20054;-87
2021/08/03 12:14:34;;;;;;;3.80;1.10;;;;;;;;;;4979540;28;20057;-85
2021/08/03 12:17:01;;;;;;;2.38;0.80;;;;;;;;;;4986735;28;20054;-86
2021/08/03 12:19:36;;;;;;;2.42;1.17;;;;;;;;;;4989826;28;20062;-86
2021/08/03 12:22:04;;;;;;;1.92;1.25;;;;;;;;;;4989398;28;20077;-85
2021/08/03 12:24:35;;;;;;;1.85;1.38;;;;;;;;;;4977819;28;20518;-86
2021/08/03 12:27:16;;;;;;;4.63;1.10;;;;;;;;;;4987136;28;20083;-86
2021/08/03 12:29:44;;;;;;;1.40;1.10;;;;;;;;;;4986127;28;20396;-87
2021/08/03 12:32:11;;;;;;;5.75;1.25;;;;;;;;;;4986311;28;20145;-87
2021/08/03 12:34:39;;;;;;;3.15;0.90;;;;;;;;;;4975049;28;20108;-87
2021/08/03 12:37:07;;;;;;;1.48;0.90;;;;;;;;;;4987918;28;20213;-86
2021/08/03 12:39:39;;;;;;;2.97;1.05;;;;;;;;;;4988606;28;20054;-86
2021/08/03 12:42:07;;;;;;;2.85;1.20;;;;;;;;;;4987117;28;20102;-86
2021/08/03 12:44:35;;;;;;;1.63;0.90;;;;;;;;;;4977616;28;20054;-86
2021/08/03 12:47:10;;;;;;;1.85;0.98;;;;;;;;;;4986799;28;20525;-86
2021/08/03 12:49:38;;;;;;;2.08;1.10;;;;;;;;;;4987659;28;20124;-86
2021/08/03 12:52:07;;;;;;;2.53;1.00;;;;;;;;;;4989748;28;20089;-86
2021/08/03 12:54:38;;;;;;;3.60;1.00;;;;;;;;;;4977288;28;20061;-86
2021/08/03 12:57:05;;;;;;;1.48;0.88;;;;;;;;;;4987589;28;20061;-86
2021/08/03 12:59:33;;;;;;;3.13;1.05;;;;;;;;;;4987435;28;20079;-86
2021/08/03 13:02:00;;;;;;;4.38;0.88;;;;;;;;;;4987755;28;20054;-86
2021/08/03 13:04:28;;;;;;;11.93;1.02;;;;;;;;;;4978496;28;20046;-86
2021/08/03 13:07:00;;;;;;;2.85;1.08;;;;;;;;;;4985084;28;20571;-85
2021/08/03 13:09:32;;;;;;;1.45;0.90;;;;;;;;;;4989155;28;20137;-86
2021/08/03 13:12:00;;;;;;;9.25;1.92;;;;;;;;;;4987401;28;20141;-86
2021/08/03 13:14:30;;;;;;;3.67;1.17;;;;;;;;;;4980148;28;20058;-87
2021/08/03 13:17:00;;;;;;;1.67;1.05;;;;;;;;;;4981546;28;20046;-87
2021/08/03 13:19:31;;;;;;;3.63;1.40;;;;;;;;;;4986750;28;20046;-86
2021/08/03 13:22:01;;;;;;;4.32;1.05;;;;;;;;;;4986307;28;20085;-86
2021/08/03 13:24:28;;;;;;;3.90;0.90;;;;;;;;;;4978739;28;20156;-87
2021/08/03 13:26:56;;;;;;;2.88;1.38;;;;;;;;;;4980738;28;20141;-86
2021/08/03 13:29:23;;;;;;;3.97;1.10;;;;;;;;;;4983937;28;20567;-86
2021/08/03 13:31:51;;;;;;;3.85;1.17;;;;;;;;;;4984352;28;20137;-86
2021/08/03 13:34:18;;;;;;;4.70;0.90;;;;;;;;;;4977087;28;20050;-87
2021/08/03 13:36:46;;;;;;;2.17;0.90;;;;;;;;;;4981748;28;20411;-87
2021/08/03 13:39:13;;;;;;;2.40;0.90;;;;;;;;;;4982099;28;20524;-86
2021/08/03 13:41:41;;;;;;;127.75;10.70;;;;;;;;;;4986904;28;20476;-86
2021/08/03 13:44:08;;;;;;;5.88;1.50;;;;;;;;;;4975137;28;20050;-86
2021/08/03 13:46:36;;;;;;;7.05;1.10;;;;;;;;;;4980546;28;20054;-87
2021/08/03 13:49:03;;;;;;;2.55;1.00;;;;;;;;;;4984171;28;20064;-87
2021/08/03 13:51:32;;;;;;;5.15;1.67;;;;;;;;;;4984621;28;20096;-86
2021/08/03 13:54:00;;;;;;;4.95;1.30;;;;;;;;;;4979287;28;20453;-87
2021/08/03 13:56:28;;;;;;;2.88;1.30;;;;;;;;;;4981099;28;20136;-87
2021/08/03 13:58:55;;;;;;;1.95;1.10;;;;;;;;;;4986276;28;20112;-88
2021/08/03 14:01:22;;;;;;;3.63;1.00;;;;;;;;;;4984992;28;20141;-86
2021/08/03 14:03:50;;;;;;;2.05;0.88;;;;;;;;;;4980694;28;20053;-87
2021/08/03 14:06:20;;;;;;;2.35;0.95;;;;;;;;;;4978105;28;20128;-87
2021/08/03 14:08:47;;;;;;;2.10;1.02;;;;;;;;;;4984781;28;20509;-86
2021/08/03 14:11:14;;;;;;;2.85;1.00;;;;;;;;;;4985739;28;20144;-87
2021/08/03 14:13:41;;;;;;;2.15;1.27;;;;;;;;;;4979298;28;20046;-87
2021/08/03 14:16:09;;;;;;;2.58;0.90;;;;;;;;;;4977781;28;20117;-87
2021/08/03 14:18:36;;;;;;;3.08;1.00;;;;;;;;;;4984361;28;20771;-88
2021/08/03 14:21:04;;;;;;;6.18;1.35;;;;;;;;;;4984291;28;20148;-86
2021/08/03 14:23:32;;;;;;;3.38;0.90;;;;;;;;;;4979172;28;20137;-87
2021/08/03 14:25:59;;;;;;;1.83;0.80;;;;;;;;;;4977185;28;20495;-87
2021/08/03 14:28:26;;;;;;;1.00;0.90;;;;;;;;;;4986007;28;20088;-88
2021/08/03 14:30:53;;;;;;;5.15;0.90;;;;;;;;;;4990294;28;20165;-88
2021/08/03 14:33:21;;;;;;;2.17;1.10;;;;;;;;;;4986093;28;20132;-89
2021/08/03 14:35:49;;;;;;;1.20;0.65;;;;;;;;;;4976207;28;20042;-87
2021/08/03 14:38:16;;;;;;;2.20;0.70;;;;;;;;;;4983922;28;20113;-87
2021/08/03 14:40:43;;;;;;;1.40;0.80;;;;;;;;;;4984207;28;20054;-87
2021/08/03 14:43:12;;;;;;;0.90;0.70;;;;;;;;;;4984486;28;20064;-87
2021/08/03 14:45:39;;;;;;;4.50;0.95;;;;;;;;;;4975122;28;20054;-87
2021/08/03 14:48:06;;;;;;;3.15;0.95;;;;;;;;;;4994138;28;20050;-87
2021/08/03 14:50:34;;;;;;;1.70;0.80;;;;;;;;;;4993132;28;20521;-89
2021/08/03 14:53:06;;;;;;;1.00;0.70;;;;;;;;;;4996452;28;20103;-88
2021/08/03 14:55:35;;;;;;;4.60;1.73;;;;;;;;;;4990446;28;20094;-88
2021/08/03 14:58:03;;;;;;;2.58;1.00;;;;;;;;;;5000769;28;20055;-87
2021/08/03 15:00:30;;;;;;;3.20;0.88;;;;;;;;;;4997503;28;20330;-88
2021/08/03 15:02:57;;;;;;;3.13;0.95;;;;;;;;;;4989083;28;20083;-87
2021/08/03 15:05:25;;;;;;;4.03;0.93;;;;;;;;;;4972960;28;20077;-87
2021/08/03 15:07:53;;;;;;;1.60;0.80;;;;;;;;;;4989131;28;20469;-87
2021/08/03 15:10:20;;;;;;;3.10;1.00;;;;;;;;;;4992098;28;20200;-89
2021/08/03 15:12:47;;;;;;;1.75;0.90;;;;;;;;;;4990922;28;20109;-87